sensor_id;sensor_type;location;lat;lon;timestamp;temperature;humidity
71627;DHT22;59475;52.464;13.590;2024-02-23T00:01:05;10.10;97.10
71627;DHT22;59475;52.464;13.590;2024-02-23T00:03:31;10.08;97.09
71627;DHT22;59475;52.464;13.590;2024-02-23T00:05:58;10.12;96.96
71627;DHT22;59475;52.464;13.590;2024-02-23T00:08:24;10.14;96.71
71627;DHT22;59475;52.464;13.590;2024-02-23T00:10:49;10.14;96.52
71627;DHT22;59475;52.464;13.590;2024-02-23T00:13:15;10.13;96.64
71627;DHT22;59475;52.464;13.590;2024-02-23T00:15:40;10.08;96.75
71627;DHT22;59475;52.464;13.590;2024-02-23T00:18:06;10.10;96.72
71627;DHT22;59475;52.464;13.590;2024-02-23T00:20:32;10.06;96.68
71627;DHT22;59475;52.464;13.590;2024-02-23T00:22:57;10.01;96.79
71627;DHT22;59475;52.464;13.590;2024-02-23T00:25:22;9.98;96.83
71627;DHT22;59475;52.464;13.590;2024-02-23T00:27:48;9.99;96.65
71627;DHT22;59475;52.464;13.590;2024-02-23T00:30:14;10.02;96.50
71627;DHT22;59475;52.464;13.590;2024-02-23T00:32:39;10.02;96.78
71627;DHT22;59475;52.464;13.590;2024-02-23T00:35:05;10.06;96.63
71627;DHT22;59475;52.464;13.590;2024-02-23T00:37:30;10.10;96.56
71627;DHT22;59475;52.464;13.590;2024-02-23T00:40:04;10.12;96.51
71627;DHT22;59475;52.464;13.590;2024-02-23T00:42:30;10.17;96.30
71627;DHT22;59475;52.464;13.590;2024-02-23T00:44:56;10.22;95.98
71627;DHT22;59475;52.464;13.590;2024-02-23T00:47:21;10.19;95.72
71627;DHT22;59475;52.464;13.590;2024-02-23T00:49:46;10.14;95.78
71627;DHT22;59475;52.464;13.590;2024-02-23T00:52:12;10.08;96.00
71627;DHT22;59475;52.464;13.590;2024-02-23T00:54:37;10.03;96.03
71627;DHT22;59475;52.464;13.590;2024-02-23T00:57:02;10.06;95.72
71627;DHT22;59475;52.464;13.590;2024-02-23T00:59:28;10.05;95.79
71627;DHT22;59475;52.464;13.590;2024-02-23T01:01:54;10.05;95.59
71627;DHT22;59475;52.464;13.590;2024-02-23T01:04:20;10.12;95.30
71627;DHT22;59475;52.464;13.590;2024-02-23T01:06:45;10.16;94.98
71627;DHT22;59475;52.464;13.590;2024-02-23T01:09:11;10.16;94.92
71627;DHT22;59475;52.464;13.590;2024-02-23T01:11:36;10.16;94.92
71627;DHT22;59475;52.464;13.590;2024-02-23T01:14:01;10.17;94.77
71627;DHT22;59475;52.464;13.590;2024-02-23T01:16:27;10.23;94.45
71627;DHT22;59475;52.464;13.590;2024-02-23T01:18:52;10.22;94.28
71627;DHT22;59475;52.464;13.590;2024-02-23T01:21:17;10.24;93.98
71627;DHT22;59475;52.464;13.590;2024-02-23T01:23:43;10.23;93.75
71627;DHT22;59475;52.464;13.590;2024-02-23T01:26:09;10.22;93.75
71627;DHT22;59475;52.464;13.590;2024-02-23T01:28:35;10.29;93.16
71627;DHT22;59475;52.464;13.590;2024-02-23T01:31:00;10.29;92.85
71627;DHT22;59475;52.464;13.590;2024-02-23T01:33:26;10.43;91.86
71627;DHT22;59475;52.464;13.590;2024-02-23T01:35:51;10.51;91.23
71627;DHT22;59475;52.464;13.590;2024-02-23T01:38:16;10.50;90.57
71627;DHT22;59475;52.464;13.590;2024-02-23T01:40:45;10.54;90.51
71627;DHT22;59475;52.464;13.590;2024-02-23T01:43:11;10.64;89.60
71627;DHT22;59475;52.464;13.590;2024-02-23T01:45:36;10.65;89.58
71627;DHT22;59475;52.464;13.590;2024-02-23T01:48:01;10.77;88.37
71627;DHT22;59475;52.464;13.590;2024-02-23T01:50:27;10.91;87.53
71627;DHT22;59475;52.464;13.590;2024-02-23T01:52:56;10.92;87.58
71627;DHT22;59475;52.464;13.590;2024-02-23T01:55:25;10.94;87.18
71627;DHT22;59475;52.464;13.590;2024-02-23T01:57:50;10.98;86.79
71627;DHT22;59475;52.464;13.590;2024-02-23T02:00:18;10.99;86.59
71627;DHT22;59475;52.464;13.590;2024-02-23T02:02:44;10.96;86.97
71627;DHT22;59475;52.464;13.590;2024-02-23T02:05:10;10.89;87.20
71627;DHT22;59475;52.464;13.590;2024-02-23T02:07:36;10.96;86.47
71627;DHT22;59475;52.464;13.590;2024-02-23T02:10:04;10.96;86.46
71627;DHT22;59475;52.464;13.590;2024-02-23T02:12:31;11.01;86.05
71627;DHT22;59475;52.464;13.590;2024-02-23T02:14:57;10.96;86.18
71627;DHT22;59475;52.464;13.590;2024-02-23T02:17:22;10.96;85.87
71627;DHT22;59475;52.464;13.590;2024-02-23T02:19:48;11.16;80.72
71627;DHT22;59475;52.464;13.590;2024-02-23T02:22:13;11.15;77.31
71627;DHT22;59475;52.464;13.590;2024-02-23T02:24:39;11.15;74.42
71627;DHT22;59475;52.464;13.590;2024-02-23T02:27:07;11.04;73.79
71627;DHT22;59475;52.464;13.590;2024-02-23T02:29:33;10.96;73.07
71627;DHT22;59475;52.464;13.590;2024-02-23T02:31:58;10.88;72.53
71627;DHT22;59475;52.464;13.590;2024-02-23T02:34:23;10.85;71.03
71627;DHT22;59475;52.464;13.590;2024-02-23T02:36:49;10.75;70.70
71627;DHT22;59475;52.464;13.590;2024-02-23T02:39:16;10.72;69.61
71627;DHT22;59475;52.464;13.590;2024-02-23T02:41:41;10.72;68.59
71627;DHT22;59475;52.464;13.590;2024-02-23T02:44:07;10.68;67.91
71627;DHT22;59475;52.464;13.590;2024-02-23T02:46:34;10.64;68.35
71627;DHT22;59475;52.464;13.590;2024-02-23T02:49:00;10.53;68.70
71627;DHT22;59475;52.464;13.590;2024-02-23T02:51:25;10.46;69.61
71627;DHT22;59475;52.464;13.590;2024-02-23T02:53:51;10.47;68.48
71627;DHT22;59475;52.464;13.590;2024-02-23T02:56:16;10.49;68.24
71627;DHT22;59475;52.464;13.590;2024-02-23T02:58:42;10.41;68.76
71627;DHT22;59475;52.464;13.590;2024-02-23T03:01:07;10.40;68.77
71627;DHT22;59475;52.464;13.590;2024-02-23T03:03:34;10.36;69.10
71627;DHT22;59475;52.464;13.590;2024-02-23T03:05:59;10.28;69.38
71627;DHT22;59475;52.464;13.590;2024-02-23T03:08:25;10.22;69.56
71627;DHT22;59475;52.464;13.590;2024-02-23T03:10:51;10.22;69.05
71627;DHT22;59475;52.464;13.590;2024-02-23T03:13:16;10.20;68.97
71627;DHT22;59475;52.464;13.590;2024-02-23T03:15:42;10.19;69.16
71627;DHT22;59475;52.464;13.590;2024-02-23T03:18:07;10.16;68.31
71627;DHT22;59475;52.464;13.590;2024-02-23T03:20:34;10.22;68.64
71627;DHT22;59475;52.464;13.590;2024-02-23T03:23:00;10.22;67.55
71627;DHT22;59475;52.464;13.590;2024-02-23T03:25:27;10.19;67.84
71627;DHT22;59475;52.464;13.590;2024-02-23T03:27:53;10.17;68.03
71627;DHT22;59475;52.464;13.590;2024-02-23T03:30:18;10.08;68.29
71627;DHT22;59475;52.464;13.590;2024-02-23T03:32:44;10.02;68.87
71627;DHT22;59475;52.464;13.590;2024-02-23T03:35:09;10.03;67.96
71627;DHT22;59475;52.464;13.590;2024-02-23T03:37:34;10.03;67.99
71627;DHT22;59475;52.464;13.590;2024-02-23T03:40:00;9.99;68.77
71627;DHT22;59475;52.464;13.590;2024-02-23T03:42:26;9.89;68.86
71627;DHT22;59475;52.464;13.590;2024-02-23T03:44:51;9.88;68.60
71627;DHT22;59475;52.464;13.590;2024-02-23T03:47:17;9.88;68.12
71627;DHT22;59475;52.464;13.590;2024-02-23T03:49:42;9.88;68.15
71627;DHT22;59475;52.464;13.590;2024-02-23T03:52:07;9.78;68.40
71627;DHT22;59475;52.464;13.590;2024-02-23T03:54:33;9.70;68.73
71627;DHT22;59475;52.464;13.590;2024-02-23T03:56:58;9.68;69.08
71627;DHT22;59475;52.464;13.590;2024-02-23T03:59:24;9.58;69.49
71627;DHT22;59475;52.464;13.590;2024-02-23T04:01:49;9.48;70.16
71627;DHT22;59475;52.464;13.590;2024-02-23T04:04:15;9.51;69.99
71627;DHT22;59475;52.464;13.590;2024-02-23T04:06:40;9.44;70.50
71627;DHT22;59475;52.464;13.590;2024-02-23T04:09:05;9.40;70.43
71627;DHT22;59475;52.464;13.590;2024-02-23T04:11:31;9.38;70.45
71627;DHT22;59475;52.464;13.590;2024-02-23T04:13:57;9.43;70.05
71627;DHT22;59475;52.464;13.590;2024-02-23T04:16:25;9.41;69.77
71627;DHT22;59475;52.464;13.590;2024-02-23T04:18:51;9.44;69.56
71627;DHT22;59475;52.464;13.590;2024-02-23T04:21:16;9.47;69.45
71627;DHT22;59475;52.464;13.590;2024-02-23T04:23:43;9.37;69.85
71627;DHT22;59475;52.464;13.590;2024-02-23T04:26:08;9.44;69.22
71627;DHT22;59475;52.464;13.590;2024-02-23T04:28:34;9.38;69.46
71627;DHT22;59475;52.464;13.590;2024-02-23T04:30:59;9.34;69.39
71627;DHT22;59475;52.464;13.590;2024-02-23T04:33:25;9.33;69.09
71627;DHT22;59475;52.464;13.590;2024-02-23T04:35:51;9.36;68.97
71627;DHT22;59475;52.464;13.590;2024-02-23T04:38:16;9.31;68.80
71627;DHT22;59475;52.464;13.590;2024-02-23T04:40:41;9.30;68.58
71627;DHT22;59475;52.464;13.590;2024-02-23T04:43:07;9.22;68.84
71627;DHT22;59475;52.464;13.590;2024-02-23T04:45:32;9.22;68.72
71627;DHT22;59475;52.464;13.590;2024-02-23T04:47:58;9.15;68.98
71627;DHT22;59475;52.464;13.590;2024-02-23T04:50:23;9.16;68.52
71627;DHT22;59475;52.464;13.590;2024-02-23T04:52:48;9.12;68.94
71627;DHT22;59475;52.464;13.590;2024-02-23T04:55:15;9.08;68.90
71627;DHT22;59475;52.464;13.590;2024-02-23T04:57:40;9.19;68.15
71627;DHT22;59475;52.464;13.590;2024-02-23T05:00:06;9.24;67.40
71627;DHT22;59475;52.464;13.590;2024-02-23T05:02:33;9.19;67.73
71627;DHT22;59475;52.464;13.590;2024-02-23T05:05:02;9.19;67.73
71627;DHT22;59475;52.464;13.590;2024-02-23T05:07:30;9.13;68.12
71627;DHT22;59475;52.464;13.590;2024-02-23T05:09:56;9.08;68.69
71627;DHT22;59475;52.464;13.590;2024-02-23T05:12:22;8.96;69.50
71627;DHT22;59475;52.464;13.590;2024-02-23T05:14:47;8.89;69.54
71627;DHT22;59475;52.464;13.590;2024-02-23T05:17:12;8.86;69.20
71627;DHT22;59475;52.464;13.590;2024-02-23T05:19:38;8.81;69.98
71627;DHT22;59475;52.464;13.590;2024-02-23T05:22:03;8.82;69.37
71627;DHT22;59475;52.464;13.590;2024-02-23T05:24:29;8.85;68.53
71627;DHT22;59475;52.464;13.590;2024-02-23T05:26:54;8.82;68.60
71627;DHT22;59475;52.464;13.590;2024-02-23T05:29:19;8.82;68.60
71627;DHT22;59475;52.464;13.590;2024-02-23T05:31:51;8.76;68.62
71627;DHT22;59475;52.464;13.590;2024-02-23T05:34:17;8.65;69.22
71627;DHT22;59475;52.464;13.590;2024-02-23T05:36:43;8.62;69.12
71627;DHT22;59475;52.464;13.590;2024-02-23T05:39:09;8.55;69.58
71627;DHT22;59475;52.464;13.590;2024-02-23T05:41:35;8.48;69.75
71627;DHT22;59475;52.464;13.590;2024-02-23T05:44:02;8.50;69.07
71627;DHT22;59475;52.464;13.590;2024-02-23T05:46:30;8.45;68.88
71627;DHT22;59475;52.464;13.590;2024-02-23T05:48:56;8.40;68.65
71627;DHT22;59475;52.464;13.590;2024-02-23T05:51:22;8.30;68.09
71627;DHT22;59475;52.464;13.590;2024-02-23T05:53:47;8.32;66.90
71627;DHT22;59475;52.464;13.590;2024-02-23T05:56:13;8.23;67.10
71627;DHT22;59475;52.464;13.590;2024-02-23T05:58:38;8.23;66.47
71627;DHT22;59475;52.464;13.590;2024-02-23T06:01:04;8.20;66.30
71627;DHT22;59475;52.464;13.590;2024-02-23T06:03:29;8.12;67.25
71627;DHT22;59475;52.464;13.590;2024-02-23T06:05:54;8.07;66.55
71627;DHT22;59475;52.464;13.590;2024-02-23T06:08:20;8.05;66.67
71627;DHT22;59475;52.464;13.590;2024-02-23T06:10:45;7.95;67.09
71627;DHT22;59475;52.464;13.590;2024-02-23T06:13:10;7.96;66.95
71627;DHT22;59475;52.464;13.590;2024-02-23T06:15:36;8.02;66.40
71627;DHT22;59475;52.464;13.590;2024-02-23T06:18:01;8.05;66.51
71627;DHT22;59475;52.464;13.590;2024-02-23T06:20:27;7.95;67.22
71627;DHT22;59475;52.464;13.590;2024-02-23T06:22:52;7.92;66.52
71627;DHT22;59475;52.464;13.590;2024-02-23T06:25:17;7.92;66.66
71627;DHT22;59475;52.464;13.590;2024-02-23T06:27:43;7.90;66.30
71627;DHT22;59475;52.464;13.590;2024-02-23T06:30:08;7.93;66.48
71627;DHT22;59475;52.464;13.590;2024-02-23T06:32:36;7.89;66.88
71627;DHT22;59475;52.464;13.590;2024-02-23T06:35:01;7.90;66.66
71627;DHT22;59475;52.464;13.590;2024-02-23T06:37:28;7.83;67.01
71627;DHT22;59475;52.464;13.590;2024-02-23T06:39:53;7.74;67.30
71627;DHT22;59475;52.464;13.590;2024-02-23T06:42:22;7.72;67.85
71627;DHT22;59475;52.464;13.590;2024-02-23T06:44:48;7.69;67.87
71627;DHT22;59475;52.464;13.590;2024-02-23T06:47:13;7.68;68.08
71627;DHT22;59475;52.464;13.590;2024-02-23T06:49:43;7.72;67.88
71627;DHT22;59475;52.464;13.590;2024-02-23T06:52:11;7.74;67.72
71627;DHT22;59475;52.464;13.590;2024-02-23T06:54:37;7.76;67.67
71627;DHT22;59475;52.464;13.590;2024-02-23T06:57:02;7.74;68.31
71627;DHT22;59475;52.464;13.590;2024-02-23T06:59:28;7.69;68.36
71627;DHT22;59475;52.464;13.590;2024-02-23T07:01:54;7.61;69.10
71627;DHT22;59475;52.464;13.590;2024-02-23T07:04:20;7.59;69.04
71627;DHT22;59475;52.464;13.590;2024-02-23T07:06:46;7.55;69.25
71627;DHT22;59475;52.464;13.590;2024-02-23T07:09:11;7.57;69.57
71627;DHT22;59475;52.464;13.590;2024-02-23T07:11:38;7.57;70.30
71627;DHT22;59475;52.464;13.590;2024-02-23T07:14:03;7.64;70.64
71627;DHT22;59475;52.464;13.590;2024-02-23T07:16:29;7.69;70.31
71627;DHT22;59475;52.464;13.590;2024-02-23T07:18:55;7.74;69.41
71627;DHT22;59475;52.464;13.590;2024-02-23T07:21:22;7.81;69.16
71627;DHT22;59475;52.464;13.590;2024-02-23T07:23:47;7.89;69.93
71627;DHT22;59475;52.464;13.590;2024-02-23T07:26:12;7.92;69.56
71627;DHT22;59475;52.464;13.590;2024-02-23T07:28:38;7.95;70.01
71627;DHT22;59475;52.464;13.590;2024-02-23T07:31:03;8.00;69.92
71627;DHT22;59475;52.464;13.590;2024-02-23T07:33:28;8.07;69.52
71627;DHT22;59475;52.464;13.590;2024-02-23T07:35:54;8.03;69.66
71627;DHT22;59475;52.464;13.590;2024-02-23T07:38:19;8.06;69.57
71627;DHT22;59475;52.464;13.590;2024-02-23T07:40:44;8.05;70.00
71627;DHT22;59475;52.464;13.590;2024-02-23T07:43:10;8.10;69.74
71627;DHT22;59475;52.464;13.590;2024-02-23T07:45:38;8.07;70.15
71627;DHT22;59475;52.464;13.590;2024-02-23T07:48:04;8.03;70.32
71627;DHT22;59475;52.464;13.590;2024-02-23T07:50:30;7.96;70.68
71627;DHT22;59475;52.464;13.590;2024-02-23T07:52:55;8.00;71.33
71627;DHT22;59475;52.464;13.590;2024-02-23T07:55:21;7.95;71.00
71627;DHT22;59475;52.464;13.590;2024-02-23T07:57:47;8.03;71.27
71627;DHT22;59475;52.464;13.590;2024-02-23T08:00:13;8.03;71.04
71627;DHT22;59475;52.464;13.590;2024-02-23T08:02:39;8.03;70.93
71627;DHT22;59475;52.464;13.590;2024-02-23T08:05:05;8.06;71.26
71627;DHT22;59475;52.464;13.590;2024-02-23T08:07:32;8.03;71.41
71627;DHT22;59475;52.464;13.590;2024-02-23T08:09:57;8.06;71.39
71627;DHT22;59475;52.464;13.590;2024-02-23T08:12:22;8.13;71.60
71627;DHT22;59475;52.464;13.590;2024-02-23T08:14:48;8.24;71.07
71627;DHT22;59475;52.464;13.590;2024-02-23T08:17:15;8.26;70.80
71627;DHT22;59475;52.464;13.590;2024-02-23T08:19:41;8.29;71.12
71627;DHT22;59475;52.464;13.590;2024-02-23T08:22:06;8.34;70.70
71627;DHT22;59475;52.464;13.590;2024-02-23T08:24:32;8.34;71.00
71627;DHT22;59475;52.464;13.590;2024-02-23T08:26:57;8.44;70.53
71627;DHT22;59475;52.464;13.590;2024-02-23T08:29:22;8.47;70.76
71627;DHT22;59475;52.464;13.590;2024-02-23T08:31:48;8.48;69.22
71627;DHT22;59475;52.464;13.590;2024-02-23T08:34:14;8.51;69.45
71627;DHT22;59475;52.464;13.590;2024-02-23T08:36:39;8.57;68.57
71627;DHT22;59475;52.464;13.590;2024-02-23T08:39:04;8.54;68.35
71627;DHT22;59475;52.464;13.590;2024-02-23T08:41:30;8.55;68.06
71627;DHT22;59475;52.464;13.590;2024-02-23T08:43:55;8.54;68.19
71627;DHT22;59475;52.464;13.590;2024-02-23T08:46:21;8.55;68.29
71627;DHT22;59475;52.464;13.590;2024-02-23T08:48:47;8.62;68.42
71627;DHT22;59475;52.464;13.590;2024-02-23T08:51:12;8.71;68.25
71627;DHT22;59475;52.464;13.590;2024-02-23T08:53:37;8.86;68.00
71627;DHT22;59475;52.464;13.590;2024-02-23T08:56:04;8.98;67.48
71627;DHT22;59475;52.464;13.590;2024-02-23T08:58:29;9.08;67.34
71627;DHT22;59475;52.464;13.590;2024-02-23T09:00:55;9.22;67.04
71627;DHT22;59475;52.464;13.590;2024-02-23T09:03:20;9.27;66.54
71627;DHT22;59475;52.464;13.590;2024-02-23T09:05:46;9.37;67.25
71627;DHT22;59475;52.464;13.590;2024-02-23T09:08:13;9.46;67.70
71627;DHT22;59475;52.464;13.590;2024-02-23T09:10:38;9.44;67.73
71627;DHT22;59475;52.464;13.590;2024-02-23T09:13:04;9.46;68.39
71627;DHT22;59475;52.464;13.590;2024-02-23T09:15:29;9.37;68.86
71627;DHT22;59475;52.464;13.590;2024-02-23T09:17:55;9.34;69.39
71627;DHT22;59475;52.464;13.590;2024-02-23T09:20:20;9.33;69.44
71627;DHT22;59475;52.464;13.590;2024-02-23T09:22:45;9.46;69.84
71627;DHT22;59475;52.464;13.590;2024-02-23T09:25:11;9.46;69.05
71627;DHT22;59475;52.464;13.590;2024-02-23T09:27:36;9.58;68.65
71627;DHT22;59475;52.464;13.590;2024-02-23T09:30:12;9.62;68.10
71627;DHT22;59475;52.464;13.590;2024-02-23T09:32:37;9.74;66.07
71627;DHT22;59475;52.464;13.590;2024-02-23T09:35:03;9.78;64.71
71627;DHT22;59475;52.464;13.590;2024-02-23T09:37:28;9.93;64.43
71627;DHT22;59475;52.464;13.590;2024-02-23T09:39:54;10.13;64.64
71627;DHT22;59475;52.464;13.590;2024-02-23T09:42:22;10.29;63.48
71627;DHT22;59475;52.464;13.590;2024-02-23T09:44:57;10.36;61.37
71627;DHT22;59475;52.464;13.590;2024-02-23T09:47:24;10.46;60.87
71627;DHT22;59475;52.464;13.590;2024-02-23T09:49:49;10.54;60.96
71627;DHT22;59475;52.464;13.590;2024-02-23T09:52:18;10.56;60.58
71627;DHT22;59475;52.464;13.590;2024-02-23T09:54:44;10.54;60.80
71627;DHT22;59475;52.464;13.590;2024-02-23T09:57:09;10.50;60.59
71627;DHT22;59475;52.464;13.590;2024-02-23T09:59:35;10.33;60.06
71627;DHT22;59475;52.464;13.590;2024-02-23T10:02:07;10.20;58.72
71627;DHT22;59475;52.464;13.590;2024-02-23T10:04:34;10.37;58.82
71627;DHT22;59475;52.464;13.590;2024-02-23T10:06:59;10.54;59.94
71627;DHT22;59475;52.464;13.590;2024-02-23T10:09:24;10.74;60.35
71627;DHT22;59475;52.464;13.590;2024-02-23T10:11:53;10.89;61.41
71627;DHT22;59475;52.464;13.590;2024-02-23T10:14:20;11.02;60.50
71627;DHT22;59475;52.464;13.590;2024-02-23T10:16:46;10.95;60.81
71627;DHT22;59475;52.464;13.590;2024-02-23T10:19:11;10.78;61.17
71627;DHT22;59475;52.464;13.590;2024-02-23T10:21:36;10.56;61.92
71627;DHT22;59475;52.464;13.590;2024-02-23T10:24:02;10.60;62.52
71627;DHT22;59475;52.464;13.590;2024-02-23T10:26:27;10.64;62.82
71627;DHT22;59475;52.464;13.590;2024-02-23T10:28:53;10.71;63.25
71627;DHT22;59475;52.464;13.590;2024-02-23T10:31:18;10.60;63.17
71627;DHT22;59475;52.464;13.590;2024-02-23T10:33:44;10.81;62.39
71627;DHT22;59475;52.464;13.590;2024-02-23T10:36:11;10.92;62.45
71627;DHT22;59475;52.464;13.590;2024-02-23T10:38:40;10.87;61.36
71627;DHT22;59475;52.464;13.590;2024-02-23T10:41:07;10.51;61.52
71627;DHT22;59475;52.464;13.590;2024-02-23T10:43:41;10.40;61.85
71627;DHT22;59475;52.464;13.590;2024-02-23T10:46:09;10.63;61.86
71627;DHT22;59475;52.464;13.590;2024-02-23T10:48:39;10.61;61.98
71627;DHT22;59475;52.464;13.590;2024-02-23T10:51:06;10.69;60.23
71627;DHT22;59475;52.464;13.590;2024-02-23T10:53:32;10.75;60.68
71627;DHT22;59475;52.464;13.590;2024-02-23T10:55:57;10.94;60.35
71627;DHT22;59475;52.464;13.590;2024-02-23T10:58:23;10.64;59.02
71627;DHT22;59475;52.464;13.590;2024-02-23T11:00:49;10.58;60.28
71627;DHT22;59475;52.464;13.590;2024-02-23T11:03:14;10.60;59.63
71627;DHT22;59475;52.464;13.590;2024-02-23T11:05:40;10.71;58.99
71627;DHT22;59475;52.464;13.590;2024-02-23T11:08:06;10.58;57.71
71627;DHT22;59475;52.464;13.590;2024-02-23T11:10:41;10.68;57.36
71627;DHT22;59475;52.464;13.590;2024-02-23T11:13:08;10.77;58.28
71627;DHT22;59475;52.464;13.590;2024-02-23T11:15:33;10.82;58.05
71627;DHT22;59475;52.464;13.590;2024-02-23T11:18:21;10.96;55.94
71627;DHT22;59475;52.464;13.590;2024-02-23T11:20:58;11.04;55.57
71627;DHT22;59475;52.464;13.590;2024-02-23T11:23:23;11.11;55.33
71627;DHT22;59475;52.464;13.590;2024-02-23T11:28:27;11.02;55.64
71627;DHT22;59475;52.464;13.590;2024-02-23T11:30:53;10.99;57.09
71627;DHT22;59475;52.464;13.590;2024-02-23T11:33:28;10.99;57.55
71627;DHT22;59475;52.464;13.590;2024-02-23T11:36:04;11.19;56.40
71627;DHT22;59475;52.464;13.590;2024-02-23T11:38:30;11.33;55.62
71627;DHT22;59475;52.464;13.590;2024-02-23T11:40:57;11.26;56.28
71627;DHT22;59475;52.464;13.590;2024-02-23T11:43:23;11.18;56.86
71627;DHT22;59475;52.464;13.590;2024-02-23T11:45:48;11.25;56.76
71627;DHT22;59475;52.464;13.590;2024-02-23T11:48:14;11.16;56.23
71627;DHT22;59475;52.464;13.590;2024-02-23T11:50:39;10.89;56.81
71627;DHT22;59475;52.464;13.590;2024-02-23T11:53:04;11.06;57.52
71627;DHT22;59475;52.464;13.590;2024-02-23T11:55:30;10.92;56.80
71627;DHT22;59475;52.464;13.590;2024-02-23T11:57:55;10.99;56.89
71627;DHT22;59475;52.464;13.590;2024-02-23T12:00:23;10.92;56.91
71627;DHT22;59475;52.464;13.590;2024-02-23T12:02:49;10.77;58.14
71627;DHT22;59475;52.464;13.590;2024-02-23T12:05:15;10.64;58.97
71627;DHT22;59475;52.464;13.590;2024-02-23T12:07:41;10.57;59.02
71627;DHT22;59475;52.464;13.590;2024-02-23T12:10:07;10.61;58.67
71627;DHT22;59475;52.464;13.590;2024-02-23T12:12:33;10.53;58.72
71627;DHT22;59475;52.464;13.590;2024-02-23T12:14:59;10.47;59.18
71627;DHT22;59475;52.464;13.590;2024-02-23T12:17:24;10.56;59.62
71627;DHT22;59475;52.464;13.590;2024-02-23T12:20:01;10.53;59.89
71627;DHT22;59475;52.464;13.590;2024-02-23T12:22:26;10.46;59.05
71627;DHT22;59475;52.464;13.590;2024-02-23T12:24:52;10.44;59.86
71627;DHT22;59475;52.464;13.590;2024-02-23T12:27:18;10.51;59.83
71627;DHT22;59475;52.464;13.590;2024-02-23T12:29:52;10.33;59.59
71627;DHT22;59475;52.464;13.590;2024-02-23T12:32:20;10.24;59.97
71627;DHT22;59475;52.464;13.590;2024-02-23T12:34:46;10.23;59.69
71627;DHT22;59475;52.464;13.590;2024-02-23T12:37:14;10.34;60.29
71627;DHT22;59475;52.464;13.590;2024-02-23T12:39:40;10.30;59.24
71627;DHT22;59475;52.464;13.590;2024-02-23T12:42:07;10.19;59.27
71627;DHT22;59475;52.464;13.590;2024-02-23T12:44:33;10.09;59.93
71627;DHT22;59475;52.464;13.590;2024-02-23T12:46:58;10.13;60.88
71627;DHT22;59475;52.464;13.590;2024-02-23T12:49:23;10.23;60.29
71627;DHT22;59475;52.464;13.590;2024-02-23T12:51:49;10.33;59.78
71627;DHT22;59475;52.464;13.590;2024-02-23T12:54:14;10.33;59.16
71627;DHT22;59475;52.464;13.590;2024-02-23T12:56:40;10.24;59.49
71627;DHT22;59475;52.464;13.590;2024-02-23T12:59:05;10.19;59.95
71627;DHT22;59475;52.464;13.590;2024-02-23T13:01:30;10.24;60.52
71627;DHT22;59475;52.464;13.590;2024-02-23T13:03:59;10.24;60.07
71627;DHT22;59475;52.464;13.590;2024-02-23T13:06:24;10.30;60.48
71627;DHT22;59475;52.464;13.590;2024-02-23T13:08:50;10.16;60.08
71627;DHT22;59475;52.464;13.590;2024-02-23T13:11:16;10.12;60.50
71627;DHT22;59475;52.464;13.590;2024-02-23T13:13:41;10.20;61.05
71627;DHT22;59475;52.464;13.590;2024-02-23T13:16:06;10.08;59.34
71627;DHT22;59475;52.464;13.590;2024-02-23T13:18:33;10.06;59.45
71627;DHT22;59475;52.464;13.590;2024-02-23T13:20:59;10.08;60.69
71627;DHT22;59475;52.464;13.590;2024-02-23T13:23:24;10.13;60.08
71627;DHT22;59475;52.464;13.590;2024-02-23T13:25:50;10.08;59.50
71627;DHT22;59475;52.464;13.590;2024-02-23T13:28:15;9.95;59.67
71627;DHT22;59475;52.464;13.590;2024-02-23T13:30:40;9.93;60.36
71627;DHT22;59475;52.464;13.590;2024-02-23T13:33:08;9.96;60.90
71627;DHT22;59475;52.464;13.590;2024-02-23T13:35:35;9.92;60.91
71627;DHT22;59475;52.464;13.590;2024-02-23T13:38:01;9.96;61.54
71627;DHT22;59475;52.464;13.590;2024-02-23T13:40:29;10.02;61.68
71627;DHT22;59475;52.464;13.590;2024-02-23T13:42:55;9.91;61.44
71627;DHT22;59475;52.464;13.590;2024-02-23T13:45:21;9.82;61.51
71627;DHT22;59475;52.464;13.590;2024-02-23T13:48:01;9.78;61.99
71627;DHT22;59475;52.464;13.590;2024-02-23T13:50:27;9.85;62.55
71627;DHT22;59475;52.464;13.590;2024-02-23T13:52:53;9.92;61.78
71627;DHT22;59475;52.464;13.590;2024-02-23T13:55:19;9.88;61.04
71627;DHT22;59475;52.464;13.590;2024-02-23T13:57:50;9.89;60.77
71627;DHT22;59475;52.464;13.590;2024-02-23T14:00:17;9.85;61.14
71627;DHT22;59475;52.464;13.590;2024-02-23T14:02:44;9.85;61.41
71627;DHT22;59475;52.464;13.590;2024-02-23T14:05:10;9.91;61.40
71627;DHT22;59475;52.464;13.590;2024-02-23T14:07:35;9.88;61.30
71627;DHT22;59475;52.464;13.590;2024-02-23T14:10:02;9.79;61.23
71627;DHT22;59475;52.464;13.590;2024-02-23T14:12:28;9.78;61.42
71627;DHT22;59475;52.464;13.590;2024-02-23T14:14:54;9.77;61.50
71627;DHT22;59475;52.464;13.590;2024-02-23T14:17:19;9.81;61.70
71627;DHT22;59475;52.464;13.590;2024-02-23T14:19:44;9.78;61.94
71627;DHT22;59475;52.464;13.590;2024-02-23T14:22:10;9.81;62.08
71627;DHT22;59475;52.464;13.590;2024-02-23T14:24:35;9.74;61.65
71627;DHT22;59475;52.464;13.590;2024-02-23T14:27:01;9.71;62.08
71627;DHT22;59475;52.464;13.590;2024-02-23T14:29:26;9.70;62.46
71627;DHT22;59475;52.464;13.590;2024-02-23T14:31:52;9.64;62.44
71627;DHT22;59475;52.464;13.590;2024-02-23T14:34:17;9.67;61.48
71627;DHT22;59475;52.464;13.590;2024-02-23T14:36:43;9.65;61.62
71627;DHT22;59475;52.464;13.590;2024-02-23T14:39:09;9.55;61.31
71627;DHT22;59475;52.464;13.590;2024-02-23T14:41:35;9.50;61.99
71627;DHT22;59475;52.464;13.590;2024-02-23T14:44:00;9.51;61.59
71627;DHT22;59475;52.464;13.590;2024-02-23T14:46:26;9.54;61.90
71627;DHT22;59475;52.464;13.590;2024-02-23T14:48:51;9.51;61.55
71627;DHT22;59475;52.464;13.590;2024-02-23T14:51:16;9.48;62.19
71627;DHT22;59475;52.464;13.590;2024-02-23T14:53:42;9.43;62.10
71627;DHT22;59475;52.464;13.590;2024-02-23T14:56:08;9.40;62.15
71627;DHT22;59475;52.464;13.590;2024-02-23T14:58:33;9.43;62.09
71627;DHT22;59475;52.464;13.590;2024-02-23T15:00:59;9.34;61.97
71627;DHT22;59475;52.464;13.590;2024-02-23T15:03:25;9.31;62.13
71627;DHT22;59475;52.464;13.590;2024-02-23T15:05:50;9.29;62.12
71627;DHT22;59475;52.464;13.590;2024-02-23T15:08:16;9.24;61.95
71627;DHT22;59475;52.464;13.590;2024-02-23T15:10:41;9.23;62.14
71627;DHT22;59475;52.464;13.590;2024-02-23T15:13:07;9.24;62.79
71627;DHT22;59475;52.464;13.590;2024-02-23T15:15:33;9.19;62.96
71627;DHT22;59475;52.464;13.590;2024-02-23T15:17:58;9.17;62.98